sensor_id;sensor_type;location;lat;lon;timestamp;P1;durP1;ratioP1;P2;durP2;ratioP2
39654;SDS011;25336;59.944;11.010;2023-08-21T00:01:33;10.98;;;3.60;;
39654;SDS011;25336;59.944;11.010;2023-08-21T00:03:58;9.90;;;3.47;;
39654;SDS011;25336;59.944;11.010;2023-08-21T00:06:24;13.43;;;3.92;;
39654;SDS011;25336;59.944;11.010;2023-08-21T00:08:50;11.95;;;4.90;;
39654;SDS011;25336;59.944;11.010;2023-08-21T00:11:15;10.77;;;4.13;;
39654;SDS011;25336;59.944;11.010;2023-08-21T00:13:41;7.57;;;3.30;;
39654;SDS011;25336;59.944;11.010;2023-08-21T00:16:09;11.45;;;4.75;;
39654;SDS011;25336;59.944;11.010;2023-08-21T00:18:36;12.98;;;4.03;;
39654;SDS011;25336;59.944;11.010;2023-08-21T00:21:02;10.75;;;3.90;;
39654;SDS011;25336;59.944;11.010;2023-08-21T00:23:27;10.93;;;3.95;;
39654;SDS011;25336;59.944;11.010;2023-08-21T00:25:53;14.00;;;4.22;;
39654;SDS011;25336;59.944;11.010;2023-08-21T00:28:19;6.90;;;3.65;;
39654;SDS011;25336;59.944;11.010;2023-08-21T00:30:44;13.10;;;3.75;;
39654;SDS011;25336;59.944;11.010;2023-08-21T00:33:10;10.50;;;4.30;;
39654;SDS011;25336;59.944;11.010;2023-08-21T00:35:35;15.70;;;5.70;;
39654;SDS011;25336;59.944;11.010;2023-08-21T00:38:01;10.30;;;4.28;;
39654;SDS011;25336;59.944;11.010;2023-08-21T00:40:27;11.30;;;4.18;;
39654;SDS011;25336;59.944;11.010;2023-08-21T00:42:53;16.95;;;4.20;;
39654;SDS011;25336;59.944;11.010;2023-08-21T00:45:18;11.07;;;3.80;;
39654;SDS011;25336;59.944;11.010;2023-08-21T00:47:44;9.52;;;3.78;;
39654;SDS011;25336;59.944;11.010;2023-08-21T00:50:10;9.10;;;3.75;;
39654;SDS011;25336;59.944;11.010;2023-08-21T00:52:39;9.23;;;3.67;;
39654;SDS011;25336;59.944;11.010;2023-08-21T00:55:06;10.35;;;3.85;;
39654;SDS011;25336;59.944;11.010;2023-08-21T00:57:33;10.85;;;3.72;;
39654;SDS011;25336;59.944;11.010;2023-08-21T01:00:02;10.90;;;3.67;;
39654;SDS011;25336;59.944;11.010;2023-08-21T01:02:29;6.30;;;3.00;;
39654;SDS011;25336;59.944;11.010;2023-08-21T01:04:55;14.60;;;2.90;;
39654;SDS011;25336;59.944;11.010;2023-08-21T01:07:20;13.40;;;3.75;;
39654;SDS011;25336;59.944;11.010;2023-08-21T01:09:50;9.65;;;4.22;;
39654;SDS011;25336;59.944;11.010;2023-08-21T01:12:26;10.32;;;3.63;;
39654;SDS011;25336;59.944;11.010;2023-08-21T01:15:06;9.95;;;3.35;;
39654;SDS011;25336;59.944;11.010;2023-08-21T01:17:36;7.70;;;3.53;;
39654;SDS011;25336;59.944;11.010;2023-08-21T01:20:03;9.45;;;3.30;;
39654;SDS011;25336;59.944;11.010;2023-08-21T01:22:35;7.38;;;3.45;;
39654;SDS011;25336;59.944;11.010;2023-08-21T01:25:02;11.53;;;4.23;;
39654;SDS011;25336;59.944;11.010;2023-08-21T01:27:32;7.60;;;3.22;;
39654;SDS011;25336;59.944;11.010;2023-08-21T01:30:00;9.80;;;3.42;;
39654;SDS011;25336;59.944;11.010;2023-08-21T01:32:30;10.30;;;3.28;;
39654;SDS011;25336;59.944;11.010;2023-08-21T01:34:57;12.63;;;3.55;;
39654;SDS011;25336;59.944;11.010;2023-08-21T01:37:24;13.55;;;4.80;;
39654;SDS011;25336;59.944;11.010;2023-08-21T01:39:51;7.88;;;4.00;;
39654;SDS011;25336;59.944;11.010;2023-08-21T01:42:19;12.65;;;3.28;;
39654;SDS011;25336;59.944;11.010;2023-08-21T01:44:45;9.45;;;2.90;;
39654;SDS011;25336;59.944;11.010;2023-08-21T01:47:11;10.52;;;3.22;;
39654;SDS011;25336;59.944;11.010;2023-08-21T01:49:37;9.95;;;3.58;;
39654;SDS011;25336;59.944;11.010;2023-08-21T01:52:03;14.88;;;3.55;;
39654;SDS011;25336;59.944;11.010;2023-08-21T01:54:29;9.57;;;3.53;;
39654;SDS011;25336;59.944;11.010;2023-08-21T01:56:54;9.85;;;3.63;;
39654;SDS011;25336;59.944;11.010;2023-08-21T01:59:20;10.38;;;3.72;;
39654;SDS011;25336;59.944;11.010;2023-08-21T02:01:46;10.30;;;3.42;;
39654;SDS011;25336;59.944;11.010;2023-08-21T02:04:12;9.50;;;2.97;;
39654;SDS011;25336;59.944;11.010;2023-08-21T02:06:38;6.47;;;2.80;;
39654;SDS011;25336;59.944;11.010;2023-08-21T02:09:03;6.68;;;2.95;;
39654;SDS011;25336;59.944;11.010;2023-08-21T02:11:29;10.75;;;3.95;;
39654;SDS011;25336;59.944;11.010;2023-08-21T02:13:54;10.05;;;3.42;;
39654;SDS011;25336;59.944;11.010;2023-08-21T02:16:20;6.22;;;3.10;;
39654;SDS011;25336;59.944;11.010;2023-08-21T02:18:47;7.55;;;2.88;;
39654;SDS011;25336;59.944;11.010;2023-08-21T02:21:13;6.20;;;2.85;;
39654;SDS011;25336;59.944;11.010;2023-08-21T02:23:38;9.38;;;3.15;;
39654;SDS011;25336;59.944;11.010;2023-08-21T02:26:04;5.85;;;3.05;;
39654;SDS011;25336;59.944;11.010;2023-08-21T02:28:30;8.68;;;3.22;;
39654;SDS011;25336;59.944;11.010;2023-08-21T02:30:55;8.18;;;2.83;;
39654;SDS011;25336;59.944;11.010;2023-08-21T02:33:21;6.20;;;2.75;;
39654;SDS011;25336;59.944;11.010;2023-08-21T02:35:47;7.63;;;3.08;;
39654;SDS011;25336;59.944;11.010;2023-08-21T02:38:12;7.10;;;2.22;;
39654;SDS011;25336;59.944;11.010;2023-08-21T02:40:38;8.35;;;2.70;;
39654;SDS011;25336;59.944;11.010;2023-08-21T02:43:04;5.72;;;2.35;;
39654;SDS011;25336;59.944;11.010;2023-08-21T02:45:29;7.18;;;2.58;;
39654;SDS011;25336;59.944;11.010;2023-08-21T02:47:56;7.65;;;2.78;;
39654;SDS011;25336;59.944;11.010;2023-08-21T02:50:21;10.00;;;3.40;;
39654;SDS011;25336;59.944;11.010;2023-08-21T02:52:47;7.18;;;2.53;;
39654;SDS011;25336;59.944;11.010;2023-08-21T02:55:12;9.10;;;2.90;;
39654;SDS011;25336;59.944;11.010;2023-08-21T02:57:39;3.67;;;2.10;;
39654;SDS011;25336;59.944;11.010;2023-08-21T03:00:05;5.68;;;2.50;;
39654;SDS011;25336;59.944;11.010;2023-08-21T03:02:33;6.30;;;2.33;;
39654;SDS011;25336;59.944;11.010;2023-08-21T03:04:59;5.45;;;2.55;;
39654;SDS011;25336;59.944;11.010;2023-08-21T03:07:25;4.35;;;2.40;;
39654;SDS011;25336;59.944;11.010;2023-08-21T03:09:50;4.90;;;2.15;;
39654;SDS011;25336;59.944;11.010;2023-08-21T03:12:16;6.03;;;2.42;;
39654;SDS011;25336;59.944;11.010;2023-08-21T03:14:45;4.90;;;2.42;;
39654;SDS011;25336;59.944;11.010;2023-08-21T03:17:11;7.75;;;2.97;;
39654;SDS011;25336;59.944;11.010;2023-08-21T03:19:36;4.22;;;2.20;;
39654;SDS011;25336;59.944;11.010;2023-08-21T03:22:02;5.68;;;2.55;;
39654;SDS011;25336;59.944;11.010;2023-08-21T03:24:28;6.05;;;2.33;;
39654;SDS011;25336;59.944;11.010;2023-08-21T03:26:54;5.63;;;1.98;;
39654;SDS011;25336;59.944;11.010;2023-08-21T03:29:19;9.05;;;3.22;;
39654;SDS011;25336;59.944;11.010;2023-08-21T03:31:49;5.82;;;2.17;;
39654;SDS011;25336;59.944;11.010;2023-08-21T03:34:15;6.22;;;2.20;;
39654;SDS011;25336;59.944;11.010;2023-08-21T03:36:41;4.30;;;2.47;;
39654;SDS011;25336;59.944;11.010;2023-08-21T03:39:06;5.97;;;2.90;;
39654;SDS011;25336;59.944;11.010;2023-08-21T03:41:32;3.63;;;2.05;;
39654;SDS011;25336;59.944;11.010;2023-08-21T03:43:58;8.60;;;2.80;;
39654;SDS011;25336;59.944;11.010;2023-08-21T03:46:23;5.38;;;2.47;;
39654;SDS011;25336;59.944;11.010;2023-08-21T03:48:49;5.38;;;2.58;;
39654;SDS011;25336;59.944;11.010;2023-08-21T03:51:15;7.55;;;2.67;;
39654;SDS011;25336;59.944;11.010;2023-08-21T03:53:41;5.57;;;2.80;;
39654;SDS011;25336;59.944;11.010;2023-08-21T03:56:07;6.25;;;2.30;;
39654;SDS011;25336;59.944;11.010;2023-08-21T03:58:33;5.85;;;2.40;;
39654;SDS011;25336;59.944;11.010;2023-08-21T04:00:58;10.77;;;2.80;;
39654;SDS011;25336;59.944;11.010;2023-08-21T04:03:24;10.48;;;3.00;;
39654;SDS011;25336;59.944;11.010;2023-08-21T04:05:50;6.93;;;3.05;;
39654;SDS011;25336;59.944;11.010;2023-08-21T04:08:19;8.57;;;2.78;;
39654;SDS011;25336;59.944;11.010;2023-08-21T04:10:44;5.78;;;3.08;;
39654;SDS011;25336;59.944;11.010;2023-08-21T04:13:10;5.25;;;2.60;;
39654;SDS011;25336;59.944;11.010;2023-08-21T04:15:36;9.00;;;3.17;;
39654;SDS011;25336;59.944;11.010;2023-08-21T04:18:02;6.63;;;3.13;;
39654;SDS011;25336;59.944;11.010;2023-08-21T04:20:27;5.85;;;2.50;;
39654;SDS011;25336;59.944;11.010;2023-08-21T04:22:53;6.15;;;2.60;;
39654;SDS011;25336;59.944;11.010;2023-08-21T04:25:19;6.93;;;2.83;;
39654;SDS011;25336;59.944;11.010;2023-08-21T04:27:44;5.90;;;3.05;;
39654;SDS011;25336;59.944;11.010;2023-08-21T04:30:10;7.20;;;3.13;;
39654;SDS011;25336;59.944;11.010;2023-08-21T04:32:36;5.85;;;2.70;;
39654;SDS011;25336;59.944;11.010;2023-08-21T04:35:02;5.88;;;2.60;;
39654;SDS011;25336;59.944;11.010;2023-08-21T04:37:27;7.35;;;2.95;;
39654;SDS011;25336;59.944;11.010;2023-08-21T04:39:53;10.60;;;3.25;;
39654;SDS011;25336;59.944;11.010;2023-08-21T04:42:19;4.90;;;2.70;;
39654;SDS011;25336;59.944;11.010;2023-08-21T04:44:45;9.23;;;3.05;;
39654;SDS011;25336;59.944;11.010;2023-08-21T04:47:20;5.90;;;2.65;;
39654;SDS011;25336;59.944;11.010;2023-08-21T04:49:53;11.43;;;4.40;;
39654;SDS011;25336;59.944;11.010;2023-08-21T04:52:20;6.15;;;3.17;;
39654;SDS011;25336;59.944;11.010;2023-08-21T04:54:47;8.75;;;3.42;;
39654;SDS011;25336;59.944;11.010;2023-08-21T04:57:14;7.00;;;3.35;;
39654;SDS011;25336;59.944;11.010;2023-08-21T04:59:40;7.57;;;3.95;;
39654;SDS011;25336;59.944;11.010;2023-08-21T05:02:05;9.27;;;3.75;;
39654;SDS011;25336;59.944;11.010;2023-08-21T05:04:31;6.05;;;2.95;;
39654;SDS011;25336;59.944;11.010;2023-08-21T05:06:58;7.10;;;3.35;;
39654;SDS011;25336;59.944;11.010;2023-08-21T05:09:23;10.48;;;3.63;;
39654;SDS011;25336;59.944;11.010;2023-08-21T05:11:49;8.95;;;3.20;;
39654;SDS011;25336;59.944;11.010;2023-08-21T05:14:15;5.45;;;3.60;;
39654;SDS011;25336;59.944;11.010;2023-08-21T05:16:40;6.38;;;3.20;;
39654;SDS011;25336;59.944;11.010;2023-08-21T05:19:06;6.00;;;3.22;;
39654;SDS011;25336;59.944;11.010;2023-08-21T05:21:32;6.63;;;3.03;;
39654;SDS011;25336;59.944;11.010;2023-08-21T05:23:58;8.00;;;3.45;;
39654;SDS011;25336;59.944;11.010;2023-08-21T05:26:23;5.78;;;3.28;;
39654;SDS011;25336;59.944;11.010;2023-08-21T05:28:49;6.35;;;2.83;;
39654;SDS011;25336;59.944;11.010;2023-08-21T05:31:14;7.03;;;3.10;;
39654;SDS011;25336;59.944;11.010;2023-08-21T05:33:40;7.22;;;3.13;;
39654;SDS011;25336;59.944;11.010;2023-08-21T05:36:06;5.40;;;2.72;;
39654;SDS011;25336;59.944;11.010;2023-08-21T05:38:31;7.38;;;3.67;;
39654;SDS011;25336;59.944;11.010;2023-08-21T05:40:57;5.07;;;3.63;;
39654;SDS011;25336;59.944;11.010;2023-08-21T05:43:23;5.25;;;3.20;;
39654;SDS011;25336;59.944;11.010;2023-08-21T05:45:49;8.95;;;3.58;;
39654;SDS011;25336;59.944;11.010;2023-08-21T05:48:15;7.88;;;3.58;;
39654;SDS011;25336;59.944;11.010;2023-08-21T05:50:41;5.07;;;3.60;;
39654;SDS011;25336;59.944;11.010;2023-08-21T05:53:08;6.95;;;3.00;;
39654;SDS011;25336;59.944;11.010;2023-08-21T05:55:33;5.13;;;3.28;;
39654;SDS011;25336;59.944;11.010;2023-08-21T05:58:02;5.78;;;3.20;;
39654;SDS011;25336;59.944;11.010;2023-08-21T06:00:28;6.68;;;3.17;;
39654;SDS011;25336;59.944;11.010;2023-08-21T06:02:53;6.43;;;3.05;;
39654;SDS011;25336;59.944;11.010;2023-08-21T06:05:19;6.90;;;3.13;;
39654;SDS011;25336;59.944;11.010;2023-08-21T06:07:45;4.75;;;4.20;;
39654;SDS011;25336;59.944;11.010;2023-08-21T06:10:11;5.38;;;3.20;;
39654;SDS011;25336;59.944;11.010;2023-08-21T06:12:38;9.10;;;3.42;;
39654;SDS011;25336;59.944;11.010;2023-08-21T06:15:05;6.05;;;3.50;;
39654;SDS011;25336;59.944;11.010;2023-08-21T06:17:33;7.72;;;4.05;;
39654;SDS011;25336;59.944;11.010;2023-08-21T06:19:59;6.55;;;3.45;;
39654;SDS011;25336;59.944;11.010;2023-08-21T06:22:25;6.22;;;3.60;;
39654;SDS011;25336;59.944;11.010;2023-08-21T06:24:50;5.72;;;3.20;;
39654;SDS011;25336;59.944;11.010;2023-08-21T06:27:16;4.88;;;2.95;;
39654;SDS011;25336;59.944;11.010;2023-08-21T06:29:42;3.75;;;3.35;;
39654;SDS011;25336;59.944;11.010;2023-08-21T06:32:08;5.65;;;3.60;;
39654;SDS011;25336;59.944;11.010;2023-08-21T06:34:33;5.32;;;3.45;;
39654;SDS011;25336;59.944;11.010;2023-08-21T06:36:59;5.10;;;3.10;;
39654;SDS011;25336;59.944;11.010;2023-08-21T06:39:25;9.13;;;3.33;;
39654;SDS011;25336;59.944;11.010;2023-08-21T06:41:51;4.45;;;2.70;;
39654;SDS011;25336;59.944;11.010;2023-08-21T06:44:16;6.70;;;3.38;;
39654;SDS011;25336;59.944;11.010;2023-08-21T06:46:42;4.25;;;3.10;;
39654;SDS011;25336;59.944;11.010;2023-08-21T06:49:08;8.85;;;3.80;;
39654;SDS011;25336;59.944;11.010;2023-08-21T06:51:34;5.90;;;3.50;;
39654;SDS011;25336;59.944;11.010;2023-08-21T06:53:59;5.25;;;3.42;;
39654;SDS011;25336;59.944;11.010;2023-08-21T06:56:25;6.40;;;3.20;;
39654;SDS011;25336;59.944;11.010;2023-08-21T06:58:51;4.15;;;3.17;;
39654;SDS011;25336;59.944;11.010;2023-08-21T07:01:17;5.78;;;3.30;;
39654;SDS011;25336;59.944;11.010;2023-08-21T07:03:42;7.80;;;3.60;;
39654;SDS011;25336;59.944;11.010;2023-08-21T07:06:08;4.15;;;2.97;;
39654;SDS011;25336;59.944;11.010;2023-08-21T07:08:34;4.68;;;2.75;;
39654;SDS011;25336;59.944;11.010;2023-08-21T07:11:01;4.70;;;2.78;;
39654;SDS011;25336;59.944;11.010;2023-08-21T07:13:29;6.35;;;2.47;;
39654;SDS011;25336;59.944;11.010;2023-08-21T07:15:55;8.52;;;2.97;;
39654;SDS011;25336;59.944;11.010;2023-08-21T07:18:20;5.97;;;2.88;;
39654;SDS011;25336;59.944;11.010;2023-08-21T07:20:46;6.15;;;2.58;;
39654;SDS011;25336;59.944;11.010;2023-08-21T07:23:12;6.28;;;3.03;;
39654;SDS011;25336;59.944;11.010;2023-08-21T07:25:37;2.85;;;2.22;;
39654;SDS011;25336;59.944;11.010;2023-08-21T07:28:03;5.70;;;2.88;;
39654;SDS011;25336;59.944;11.010;2023-08-21T07:30:29;5.35;;;2.80;;
39654;SDS011;25336;59.944;11.010;2023-08-21T07:32:54;3.13;;;2.53;;
39654;SDS011;25336;59.944;11.010;2023-08-21T07:35:20;5.22;;;2.70;;
39654;SDS011;25336;59.944;11.010;2023-08-21T07:37:46;5.95;;;2.65;;
39654;SDS011;25336;59.944;11.010;2023-08-21T07:40:12;5.13;;;2.17;;
39654;SDS011;25336;59.944;11.010;2023-08-21T07:42:38;2.97;;;2.08;;
39654;SDS011;25336;59.944;11.010;2023-08-21T07:45:04;3.05;;;2.17;;
39654;SDS011;25336;59.944;11.010;2023-08-21T07:47:30;4.82;;;2.58;;
39654;SDS011;25336;59.944;11.010;2023-08-21T07:49:56;5.15;;;2.92;;
39654;SDS011;25336;59.944;11.010;2023-08-21T07:52:22;3.08;;;2.15;;
39654;SDS011;25336;59.944;11.010;2023-08-21T07:54:51;3.08;;;2.50;;
39654;SDS011;25336;59.944;11.010;2023-08-21T07:57:17;2.38;;;1.90;;
39654;SDS011;25336;59.944;11.010;2023-08-21T07:59:43;2.95;;;2.10;;
39654;SDS011;25336;59.944;11.010;2023-08-21T08:02:09;4.80;;;2.10;;
39654;SDS011;25336;59.944;11.010;2023-08-21T08:04:36;3.15;;;1.80;;
39654;SDS011;25336;59.944;11.010;2023-08-21T08:07:02;5.28;;;1.90;;
39654;SDS011;25336;59.944;11.010;2023-08-21T08:09:28;2.92;;;1.80;;
39654;SDS011;25336;59.944;11.010;2023-08-21T08:11:53;2.58;;;1.80;;
39654;SDS011;25336;59.944;11.010;2023-08-21T08:14:19;4.57;;;1.63;;
39654;SDS011;25336;59.944;11.010;2023-08-21T08:16:45;4.00;;;2.53;;
39654;SDS011;25336;59.944;11.010;2023-08-21T08:19:11;3.80;;;1.90;;
39654;SDS011;25336;59.944;11.010;2023-08-21T08:21:36;3.15;;;1.77;;
39654;SDS011;25336;59.944;11.010;2023-08-21T08:24:02;5.60;;;2.22;;
39654;SDS011;25336;59.944;11.010;2023-08-21T08:26:27;3.03;;;1.70;;
39654;SDS011;25336;59.944;11.010;2023-08-21T08:28:53;3.13;;;2.10;;
39654;SDS011;25336;59.944;11.010;2023-08-21T08:31:20;2.15;;;1.55;;
39654;SDS011;25336;59.944;11.010;2023-08-21T08:33:45;3.70;;;2.10;;
39654;SDS011;25336;59.944;11.010;2023-08-21T08:36:13;6.10;;;1.58;;
39654;SDS011;25336;59.944;11.010;2023-08-21T08:38:38;2.75;;;1.50;;
39654;SDS011;25336;59.944;11.010;2023-08-21T08:41:06;2.90;;;1.73;;
39654;SDS011;25336;59.944;11.010;2023-08-21T08:43:35;6.30;;;1.60;;
39654;SDS011;25336;59.944;11.010;2023-08-21T08:46:04;1.80;;;1.40;;
39654;SDS011;25336;59.944;11.010;2023-08-21T08:48:33;4.43;;;1.73;;
39654;SDS011;25336;59.944;11.010;2023-08-21T08:51:02;2.92;;;1.83;;
39654;SDS011;25336;59.944;11.010;2023-08-21T08:53:31;2.35;;;1.40;;
39654;SDS011;25336;59.944;11.010;2023-08-21T08:55:57;2.83;;;1.40;;
39654;SDS011;25336;59.944;11.010;2023-08-21T08:58:23;2.92;;;1.33;;
39654;SDS011;25336;59.944;11.010;2023-08-21T09:00:49;2.50;;;1.38;;
39654;SDS011;25336;59.944;11.010;2023-08-21T09:03:15;2.25;;;1.45;;
39654;SDS011;25336;59.944;11.010;2023-08-21T09:05:41;3.42;;;1.40;;
39654;SDS011;25336;59.944;11.010;2023-08-21T09:08:13;1.85;;;1.50;;
39654;SDS011;25336;59.944;11.010;2023-08-21T09:10:40;1.55;;;1.10;;
39654;SDS011;25336;59.944;11.010;2023-08-21T09:13:14;2.83;;;1.50;;
39654;SDS011;25336;59.944;11.010;2023-08-21T09:15:45;2.28;;;1.73;;
39654;SDS011;25336;59.944;11.010;2023-08-21T09:18:12;2.58;;;1.25;;
39654;SDS011;25336;59.944;11.010;2023-08-21T09:20:39;1.17;;;1.08;;
39654;SDS011;25336;59.944;11.010;2023-08-21T09:23:06;2.08;;;1.40;;
39654;SDS011;25336;59.944;11.010;2023-08-21T09:25:35;1.90;;;1.00;;
39654;SDS011;25336;59.944;11.010;2023-08-21T09:28:04;4.40;;;1.25;;
39654;SDS011;25336;59.944;11.010;2023-08-21T09:30:42;2.67;;;1.40;;
39654;SDS011;25336;59.944;11.010;2023-08-21T09:33:12;2.53;;;1.35;;
39654;SDS011;25336;59.944;11.010;2023-08-21T09:35:38;3.80;;;1.20;;
39654;SDS011;25336;59.944;11.010;2023-08-21T09:38:07;5.65;;;1.60;;
39654;SDS011;25336;59.944;11.010;2023-08-21T09:40:33;1.73;;;1.05;;
39654;SDS011;25336;59.944;11.010;2023-08-21T09:42:58;1.98;;;0.98;;
39654;SDS011;25336;59.944;11.010;2023-08-21T09:45:25;3.72;;;1.10;;
39654;SDS011;25336;59.944;11.010;2023-08-21T09:47:53;1.73;;;1.17;;
39654;SDS011;25336;59.944;11.010;2023-08-21T09:50:19;2.83;;;1.30;;
39654;SDS011;25336;59.944;11.010;2023-08-21T09:52:45;2.22;;;1.17;;
39654;SDS011;25336;59.944;11.010;2023-08-21T09:55:12;1.35;;;1.00;;
39654;SDS011;25336;59.944;11.010;2023-08-21T09:57:39;3.65;;;1.00;;
39654;SDS011;25336;59.944;11.010;2023-08-21T10:00:08;1.80;;;0.98;;
39654;SDS011;25336;59.944;11.010;2023-08-21T10:02:41;1.50;;;1.17;;
39654;SDS011;25336;59.944;11.010;2023-08-21T10:05:10;2.20;;;1.17;;
39654;SDS011;25336;59.944;11.010;2023-08-21T10:07:37;5.15;;;1.15;;
39654;SDS011;25336;59.944;11.010;2023-08-21T10:10:03;1.23;;;0.93;;
39654;SDS011;25336;59.944;11.010;2023-08-21T10:12:29;2.60;;;1.17;;
39654;SDS011;25336;59.944;11.010;2023-08-21T10:14:55;1.10;;;0.80;;
39654;SDS011;25336;59.944;11.010;2023-08-21T10:17:20;2.35;;;0.98;;
39654;SDS011;25336;59.944;11.010;2023-08-21T10:19:52;1.50;;;1.10;;
39654;SDS011;25336;59.944;11.010;2023-08-21T10:22:39;1.52;;;1.00;;
39654;SDS011;25336;59.944;11.010;2023-08-21T10:25:17;3.38;;;0.95;;
39654;SDS011;25336;59.944;11.010;2023-08-21T10:27:57;1.85;;;0.93;;
39654;SDS011;25336;59.944;11.010;2023-08-21T10:30:26;1.52;;;0.68;;
39654;SDS011;25336;59.944;11.010;2023-08-21T10:32:57;1.88;;;0.93;;
39654;SDS011;25336;59.944;11.010;2023-08-21T10:35:24;2.47;;;0.90;;
39654;SDS011;25336;59.944;11.010;2023-08-21T10:40:37;2.47;;;1.45;;
39654;SDS011;25336;59.944;11.010;2023-08-21T10:43:04;2.88;;;0.95;;
39654;SDS011;25336;59.944;11.010;2023-08-21T10:45:30;0.93;;;0.90;;
39654;SDS011;25336;59.944;11.010;2023-08-21T10:47:59;3.97;;;1.08;;
39654;SDS011;25336;59.944;11.010;2023-08-21T10:50:25;1.52;;;0.90;;
39654;SDS011;25336;59.944;11.010;2023-08-21T10:52:52;3.17;;;0.98;;
39654;SDS011;25336;59.944;11.010;2023-08-21T10:55:18;1.73;;;0.85;;
39654;SDS011;25336;59.944;11.010;2023-08-21T10:57:48;3.72;;;0.90;;
39654;SDS011;25336;59.944;11.010;2023-08-21T11:00:15;1.42;;;1.00;;
39654;SDS011;25336;59.944;11.010;2023-08-21T11:02:48;3.53;;;0.80;;
39654;SDS011;25336;59.944;11.010;2023-08-21T11:05:15;1.67;;;0.88;;
39654;SDS011;25336;59.944;11.010;2023-08-21T11:07:42;1.85;;;0.70;;
39654;SDS011;25336;59.944;11.010;2023-08-21T11:10:10;1.92;;;0.82;;
39654;SDS011;25336;59.944;11.010;2023-08-21T11:15:16;2.60;;;0.88;;
39654;SDS011;25336;59.944;11.010;2023-08-21T11:17:42;1.90;;;0.80;;
39654;SDS011;25336;59.944;11.010;2023-08-21T11:20:15;2.50;;;0.80;;
39654;SDS011;25336;59.944;11.010;2023-08-21T11:22:41;1.67;;;0.52;;
39654;SDS011;25336;59.944;11.010;2023-08-21T11:25:07;3.10;;;0.68;;
39654;SDS011;25336;59.944;11.010;2023-08-21T11:27:32;1.75;;;0.60;;
39654;SDS011;25336;59.944;11.010;2023-08-21T11:29:58;2.55;;;0.70;;
39654;SDS011;25336;59.944;11.010;2023-08-21T11:32:25;1.02;;;0.70;;
39654;SDS011;25336;59.944;11.010;2023-08-21T11:34:52;0.90;;;0.63;;
39654;SDS011;25336;59.944;11.010;2023-08-21T11:37:22;0.85;;;0.52;;
39654;SDS011;25336;59.944;11.010;2023-08-21T11:42:16;0.47;;;0.47;;
39654;SDS011;25336;59.944;11.010;2023-08-21T11:44:50;1.02;;;0.55;;
39654;SDS011;25336;59.944;11.010;2023-08-21T11:47:18;1.17;;;0.80;;
39654;SDS011;25336;59.944;11.010;2023-08-21T11:49:45;1.00;;;0.65;;
39654;SDS011;25336;59.944;11.010;2023-08-21T11:52:17;0.93;;;0.60;;
39654;SDS011;25336;59.944;11.010;2023-08-21T11:54:50;0.93;;;0.50;;
39654;SDS011;25336;59.944;11.010;2023-08-21T11:57:17;0.50;;;0.50;;
39654;SDS011;25336;59.944;11.010;2023-08-21T11:59:49;2.25;;;0.75;;
39654;SDS011;25336;59.944;11.010;2023-08-21T12:02:28;2.17;;;0.70;;
39654;SDS011;25336;59.944;11.010;2023-08-21T12:05:03;2.58;;;0.80;;
39654;SDS011;25336;59.944;11.010;2023-08-21T12:07:30;1.25;;;0.80;;
39654;SDS011;25336;59.944;11.010;2023-08-21T12:09:57;2.25;;;0.40;;
39654;SDS011;25336;59.944;11.010;2023-08-21T12:12:22;0.77;;;0.50;;
39654;SDS011;25336;59.944;11.010;2023-08-21T12:14:48;0.80;;;0.50;;
39654;SDS011;25336;59.944;11.010;2023-08-21T12:17:14;1.50;;;0.82;;
39654;SDS011;25336;59.944;11.010;2023-08-21T12:19:40;0.75;;;0.55;;
39654;SDS011;25336;59.944;11.010;2023-08-21T12:22:06;3.55;;;0.70;;
39654;SDS011;25336;59.944;11.010;2023-08-21T12:24:32;1.80;;;0.60;;
39654;SDS011;25336;59.944;11.010;2023-08-21T12:26:58;0.73;;;0.50;;
39654;SDS011;25336;59.944;11.010;2023-08-21T12:29:23;4.03;;;0.93;;
39654;SDS011;25336;59.944;11.010;2023-08-21T12:31:49;0.70;;;0.40;;
39654;SDS011;25336;59.944;11.010;2023-08-21T12:34:14;0.75;;;0.50;;
39654;SDS011;25336;59.944;11.010;2023-08-21T12:36:40;1.20;;;0.50;;
39654;SDS011;25336;59.944;11.010;2023-08-21T12:39:06;0.60;;;0.40;;
39654;SDS011;25336;59.944;11.010;2023-08-21T12:41:32;1.35;;;0.40;;
39654;SDS011;25336;59.944;11.010;2023-08-21T12:43:58;6.20;;;0.80;;
39654;SDS011;25336;59.944;11.010;2023-08-21T12:46:24;1.42;;;0.63;;
39654;SDS011;25336;59.944;11.010;2023-08-21T12:48:52;0.77;;;0.50;;
39654;SDS011;25336;59.944;11.010;2023-08-21T12:51:18;1.17;;;0.60;;
39654;SDS011;25336;59.944;11.010;2023-08-21T12:53:44;2.65;;;0.50;;
39654;SDS011;25336;59.944;11.010;2023-08-21T12:56:10;0.50;;;0.50;;
39654;SDS011;25336;59.944;11.010;2023-08-21T12:58:36;1.38;;;0.68;;
39654;SDS011;25336;59.944;11.010;2023-08-21T13:01:01;0.90;;;0.50;;
39654;SDS011;25336;59.944;11.010;2023-08-21T13:03:28;0.88;;;0.50;;
39654;SDS011;25336;59.944;11.010;2023-08-21T13:05:54;1.23;;;0.80;;
39654;SDS011;25336;59.944;11.010;2023-08-21T13:08:20;0.50;;;0.50;;
39654;SDS011;25336;59.944;11.010;2023-08-21T13:10:46;4.00;;;0.70;;
39654;SDS011;25336;59.944;11.010;2023-08-21T13:13:12;0.88;;;0.43;;
39654;SDS011;25336;59.944;11.010;2023-08-21T13:15:38;1.77;;;0.85;;
39654;SDS011;25336;59.944;11.010;2023-08-21T13:18:03;3.90;;;0.57;;
39654;SDS011;25336;59.944;11.010;2023-08-21T13:20:29;0.70;;;0.50;;
39654;SDS011;25336;59.944;11.010;2023-08-21T13:22:55;1.50;;;0.60;;
39654;SDS011;25336;59.944;11.010;2023-08-21T13:25:21;1.08;;;0.60;;
39654;SDS011;25336;59.944;11.010;2023-08-21T13:27:49;0.57;;;0.57;;
39654;SDS011;25336;59.944;11.010;2023-08-21T13:30:15;1.42;;;0.75;;
39654;SDS011;25336;59.944;11.010;2023-08-21T13:32:41;2.35;;;0.65;;
39654;SDS011;25336;59.944;11.010;2023-08-21T13:35:07;1.52;;;0.70;;
39654;SDS011;25336;59.944;11.010;2023-08-21T13:37:34;1.73;;;0.70;;
39654;SDS011;25336;59.944;11.010;2023-08-21T13:40:01;0.98;;;0.80;;
39654;SDS011;25336;59.944;11.010;2023-08-21T13:42:34;1.38;;;0.80;;
39654;SDS011;25336;59.944;11.010;2023-08-21T13:45:02;0.85;;;0.65;;
39654;SDS011;25336;59.944;11.010;2023-08-21T13:47:28;1.02;;;0.60;;
39654;SDS011;25336;59.944;11.010;2023-08-21T13:49:54;0.95;;;0.68;;
39654;SDS011;25336;59.944;11.010;2023-08-21T13:52:20;2.40;;;0.77;;
39654;SDS011;25336;59.944;11.010;2023-08-21T13:54:45;1.42;;;0.90;;
39654;SDS011;25336;59.944;11.010;2023-08-21T13:57:12;0.88;;;0.60;;
39654;SDS011;25336;59.944;11.010;2023-08-21T13:59:37;2.30;;;0.63;;
39654;SDS011;25336;59.944;11.010;2023-08-21T14:02:03;1.95;;;0.98;;
39654;SDS011;25336;59.944;11.010;2023-08-21T14:04:29;0.80;;;0.43;;
39654;SDS011;25336;59.944;11.010;2023-08-21T14:06:57;2.80;;;0.85;;
39654;SDS011;25336;59.944;11.010;2023-08-21T14:09:22;1.23;;;0.70;;
39654;SDS011;25336;59.944;11.010;2023-08-21T14:11:48;1.48;;;0.80;;
39654;SDS011;25336;59.944;11.010;2023-08-21T14:14:14;1.50;;;0.55;;
39654;SDS011;25336;59.944;11.010;2023-08-21T14:16:39;1.02;;;0.73;;
39654;SDS011;25336;59.944;11.010;2023-08-21T14:19:05;1.73;;;0.85;;
39654;SDS011;25336;59.944;11.010;2023-08-21T14:21:31;1.50;;;0.80;;
39654;SDS011;25336;59.944;11.010;2023-08-21T14:23:56;2.03;;;0.63;;
39654;SDS011;25336;59.944;11.010;2023-08-21T14:26:22;0.70;;;0.60;;
39654;SDS011;25336;59.944;11.010;2023-08-21T14:28:48;1.00;;;0.50;;
39654;SDS011;25336;59.944;11.010;2023-08-21T14:31:15;0.45;;;0.45;;
39654;SDS011;25336;59.944;11.010;2023-08-21T14:33:41;0.55;;;0.40;;
39654;SDS011;25336;59.944;11.010;2023-08-21T14:36:08;1.23;;;0.65;;
39654;SDS011;25336;59.944;11.010;2023-08-21T14:38:33;1.25;;;0.63;;